sensor_id;sensor_type;location;lat;lon;timestamp;P1;durP1;ratioP1;P2;durP2;ratioP2
11935;SDS011;6027;48.576;9.180;2022-07-22T00:01:16;6.82;;;5.40;;
11935;SDS011;6027;48.576;9.180;2022-07-22T00:03:41;5.40;;;4.93;;
11935;SDS011;6027;48.576;9.180;2022-07-22T00:06:07;5.47;;;4.65;;
11935;SDS011;6027;48.576;9.180;2022-07-22T00:08:32;5.65;;;4.63;;
11935;SDS011;6027;48.576;9.180;2022-07-22T00:10:58;5.68;;;4.80;;
11935;SDS011;6027;48.576;9.180;2022-07-22T00:13:23;5.00;;;4.60;;
11935;SDS011;6027;48.576;9.180;2022-07-22T00:15:49;5.38;;;4.97;;
11935;SDS011;6027;48.576;9.180;2022-07-22T00:18:14;4.82;;;4.43;;
11935;SDS011;6027;48.576;9.180;2022-07-22T00:20:40;5.53;;;5.00;;
11935;SDS011;6027;48.576;9.180;2022-07-22T00:23:07;5.38;;;4.82;;
11935;SDS011;6027;48.576;9.180;2022-07-22T00:25:32;4.53;;;4.10;;
11935;SDS011;6027;48.576;9.180;2022-07-22T00:27:58;7.18;;;4.22;;
11935;SDS011;6027;48.576;9.180;2022-07-22T00:30:23;4.47;;;4.10;;
11935;SDS011;6027;48.576;9.180;2022-07-22T00:32:49;6.03;;;4.35;;
11935;SDS011;6027;48.576;9.180;2022-07-22T00:35:14;5.13;;;4.57;;
11935;SDS011;6027;48.576;9.180;2022-07-22T00:37:39;6.10;;;4.88;;
11935;SDS011;6027;48.576;9.180;2022-07-22T00:40:05;5.28;;;4.80;;
11935;SDS011;6027;48.576;9.180;2022-07-22T00:42:31;5.25;;;4.35;;
11935;SDS011;6027;48.576;9.180;2022-07-22T00:44:57;4.80;;;4.30;;
11935;SDS011;6027;48.576;9.180;2022-07-22T00:47:22;4.93;;;4.43;;
11935;SDS011;6027;48.576;9.180;2022-07-22T00:49:48;5.47;;;4.43;;
11935;SDS011;6027;48.576;9.180;2022-07-22T00:52:14;6.88;;;4.70;;
11935;SDS011;6027;48.576;9.180;2022-07-22T00:54:39;5.10;;;4.55;;
11935;SDS011;6027;48.576;9.180;2022-07-22T00:57:05;4.72;;;4.30;;
11935;SDS011;6027;48.576;9.180;2022-07-22T00:59:31;4.55;;;4.15;;
11935;SDS011;6027;48.576;9.180;2022-07-22T01:01:57;4.70;;;4.30;;
11935;SDS011;6027;48.576;9.180;2022-07-22T01:04:22;6.57;;;4.22;;
11935;SDS011;6027;48.576;9.180;2022-07-22T01:06:48;4.80;;;4.43;;
11935;SDS011;6027;48.576;9.180;2022-07-22T01:09:13;5.15;;;4.65;;
11935;SDS011;6027;48.576;9.180;2022-07-22T01:11:39;5.00;;;4.60;;
11935;SDS011;6027;48.576;9.180;2022-07-22T01:14:06;5.43;;;4.63;;
11935;SDS011;6027;48.576;9.180;2022-07-22T01:16:31;7.10;;;4.90;;
11935;SDS011;6027;48.576;9.180;2022-07-22T01:18:57;5.38;;;4.53;;
11935;SDS011;6027;48.576;9.180;2022-07-22T01:21:23;6.65;;;4.85;;
11935;SDS011;6027;48.576;9.180;2022-07-22T01:23:49;5.75;;;4.80;;
11935;SDS011;6027;48.576;9.180;2022-07-22T01:26:15;5.13;;;4.63;;
11935;SDS011;6027;48.576;9.180;2022-07-22T01:28:42;6.53;;;4.82;;
11935;SDS011;6027;48.576;9.180;2022-07-22T01:31:08;7.45;;;5.22;;
11935;SDS011;6027;48.576;9.180;2022-07-22T01:33:34;5.47;;;4.97;;
11935;SDS011;6027;48.576;9.180;2022-07-22T01:36:00;6.10;;;5.07;;
11935;SDS011;6027;48.576;9.180;2022-07-22T01:38:26;6.20;;;4.57;;
11935;SDS011;6027;48.576;9.180;2022-07-22T01:40:52;6.43;;;5.40;;
11935;SDS011;6027;48.576;9.180;2022-07-22T01:43:17;5.78;;;5.20;;
11935;SDS011;6027;48.576;9.180;2022-07-22T01:45:46;8.55;;;4.90;;
11935;SDS011;6027;48.576;9.180;2022-07-22T01:48:13;6.80;;;5.55;;
11935;SDS011;6027;48.576;9.180;2022-07-22T01:50:40;5.63;;;5.13;;
11935;SDS011;6027;48.576;9.180;2022-07-22T01:53:06;6.13;;;5.10;;
11935;SDS011;6027;48.576;9.180;2022-07-22T01:55:32;6.43;;;4.95;;
11935;SDS011;6027;48.576;9.180;2022-07-22T01:57:57;6.43;;;5.10;;
11935;SDS011;6027;48.576;9.180;2022-07-22T02:00:23;6.90;;;5.50;;
11935;SDS011;6027;48.576;9.180;2022-07-22T02:02:48;6.57;;;5.38;;
11935;SDS011;6027;48.576;9.180;2022-07-22T02:05:13;6.00;;;5.40;;
11935;SDS011;6027;48.576;9.180;2022-07-22T02:07:39;7.32;;;5.38;;
11935;SDS011;6027;48.576;9.180;2022-07-22T02:10:05;5.82;;;5.30;;
11935;SDS011;6027;48.576;9.180;2022-07-22T02:12:30;6.20;;;5.60;;
11935;SDS011;6027;48.576;9.180;2022-07-22T02:14:56;6.70;;;6.10;;
11935;SDS011;6027;48.576;9.180;2022-07-22T02:17:21;6.57;;;5.97;;
11935;SDS011;6027;48.576;9.180;2022-07-22T02:19:47;7.40;;;5.68;;
11935;SDS011;6027;48.576;9.180;2022-07-22T02:22:12;6.47;;;5.88;;
11935;SDS011;6027;48.576;9.180;2022-07-22T02:24:38;6.50;;;5.90;;
11935;SDS011;6027;48.576;9.180;2022-07-22T02:27:06;7.97;;;5.95;;
11935;SDS011;6027;48.576;9.180;2022-07-22T02:29:32;6.53;;;5.50;;
11935;SDS011;6027;48.576;9.180;2022-07-22T02:31:58;6.75;;;5.57;;
11935;SDS011;6027;48.576;9.180;2022-07-22T02:34:24;5.82;;;5.20;;
11935;SDS011;6027;48.576;9.180;2022-07-22T02:36:50;7.43;;;5.32;;
11935;SDS011;6027;48.576;9.180;2022-07-22T02:39:15;6.13;;;4.97;;
11935;SDS011;6027;48.576;9.180;2022-07-22T02:41:41;8.05;;;5.25;;
11935;SDS011;6027;48.576;9.180;2022-07-22T02:44:06;6.18;;;5.35;;
11935;SDS011;6027;48.576;9.180;2022-07-22T02:46:32;5.95;;;5.45;;
11935;SDS011;6027;48.576;9.180;2022-07-22T02:48:57;6.47;;;5.68;;
11935;SDS011;6027;48.576;9.180;2022-07-22T02:51:23;6.00;;;5.45;;
11935;SDS011;6027;48.576;9.180;2022-07-22T02:53:49;5.83;;;5.27;;
11935;SDS011;6027;48.576;9.180;2022-07-22T02:56:14;6.20;;;5.47;;
11935;SDS011;6027;48.576;9.180;2022-07-22T02:58:40;6.95;;;5.22;;
11935;SDS011;6027;48.576;9.180;2022-07-22T03:01:06;6.15;;;5.60;;
11935;SDS011;6027;48.576;9.180;2022-07-22T03:03:32;6.10;;;5.32;;
11935;SDS011;6027;48.576;9.180;2022-07-22T03:05:57;6.53;;;5.93;;
11935;SDS011;6027;48.576;9.180;2022-07-22T03:08:23;5.72;;;5.22;;
11935;SDS011;6027;48.576;9.180;2022-07-22T03:10:50;6.78;;;5.57;;
11935;SDS011;6027;48.576;9.180;2022-07-22T03:13:16;6.20;;;5.50;;
11935;SDS011;6027;48.576;9.180;2022-07-22T03:15:41;6.07;;;5.43;;
11935;SDS011;6027;48.576;9.180;2022-07-22T03:18:07;6.38;;;5.78;;
11935;SDS011;6027;48.576;9.180;2022-07-22T03:20:33;6.53;;;5.93;;
11935;SDS011;6027;48.576;9.180;2022-07-22T03:22:58;5.68;;;5.10;;
11935;SDS011;6027;48.576;9.180;2022-07-22T03:25:24;6.00;;;5.32;;
11935;SDS011;6027;48.576;9.180;2022-07-22T03:27:49;6.55;;;5.75;;
11935;SDS011;6027;48.576;9.180;2022-07-22T03:30:15;6.18;;;5.57;;
11935;SDS011;6027;48.576;9.180;2022-07-22T03:32:41;6.97;;;5.68;;
11935;SDS011;6027;48.576;9.180;2022-07-22T03:35:12;6.63;;;6.03;;
11935;SDS011;6027;48.576;9.180;2022-07-22T03:37:38;6.15;;;5.55;;
11935;SDS011;6027;48.576;9.180;2022-07-22T03:40:05;9.55;;;5.88;;
11935;SDS011;6027;48.576;9.180;2022-07-22T03:42:31;6.40;;;5.55;;
11935;SDS011;6027;48.576;9.180;2022-07-22T03:44:57;7.28;;;5.63;;
11935;SDS011;6027;48.576;9.180;2022-07-22T03:47:23;6.60;;;5.97;;
11935;SDS011;6027;48.576;9.180;2022-07-22T03:49:49;5.93;;;5.32;;
11935;SDS011;6027;48.576;9.180;2022-07-22T03:52:15;6.68;;;6.07;;
11935;SDS011;6027;48.576;9.180;2022-07-22T03:54:41;6.70;;;6.10;;
11935;SDS011;6027;48.576;9.180;2022-07-22T03:57:07;6.78;;;5.50;;
11935;SDS011;6027;48.576;9.180;2022-07-22T03:59:33;7.05;;;5.80;;
11935;SDS011;6027;48.576;9.180;2022-07-22T04:01:59;5.97;;;5.47;;
11935;SDS011;6027;48.576;9.180;2022-07-22T04:04:24;6.65;;;5.95;;
11935;SDS011;6027;48.576;9.180;2022-07-22T04:06:51;6.68;;;5.82;;
11935;SDS011;6027;48.576;9.180;2022-07-22T04:09:17;6.78;;;5.50;;
11935;SDS011;6027;48.576;9.180;2022-07-22T04:11:43;6.38;;;5.75;;
11935;SDS011;6027;48.576;9.180;2022-07-22T04:14:09;7.63;;;6.18;;
11935;SDS011;6027;48.576;9.180;2022-07-22T04:16:34;7.63;;;5.63;;
11935;SDS011;6027;48.576;9.180;2022-07-22T04:19:00;6.75;;;6.05;;
11935;SDS011;6027;48.576;9.180;2022-07-22T04:21:26;6.82;;;5.65;;
11935;SDS011;6027;48.576;9.180;2022-07-22T04:23:52;6.38;;;5.78;;
11935;SDS011;6027;48.576;9.180;2022-07-22T04:26:18;6.78;;;6.18;;
11935;SDS011;6027;48.576;9.180;2022-07-22T04:28:44;7.30;;;6.10;;
11935;SDS011;6027;48.576;9.180;2022-07-22T04:31:09;6.40;;;5.75;;
11935;SDS011;6027;48.576;9.180;2022-07-22T04:33:35;7.38;;;5.65;;
11935;SDS011;6027;48.576;9.180;2022-07-22T04:36:00;6.25;;;5.57;;
11935;SDS011;6027;48.576;9.180;2022-07-22T04:38:26;6.57;;;5.90;;
11935;SDS011;6027;48.576;9.180;2022-07-22T04:40:51;7.35;;;5.55;;
11935;SDS011;6027;48.576;9.180;2022-07-22T04:43:18;6.53;;;5.55;;
11935;SDS011;6027;48.576;9.180;2022-07-22T04:45:43;7.65;;;5.78;;
11935;SDS011;6027;48.576;9.180;2022-07-22T04:48:09;8.10;;;6.03;;
11935;SDS011;6027;48.576;9.180;2022-07-22T04:50:37;9.02;;;7.00;;
11935;SDS011;6027;48.576;9.180;2022-07-22T04:53:03;7.57;;;6.85;;
11935;SDS011;6027;48.576;9.180;2022-07-22T04:55:28;6.95;;;6.22;;
11935;SDS011;6027;48.576;9.180;2022-07-22T04:57:54;7.60;;;6.78;;
11935;SDS011;6027;48.576;9.180;2022-07-22T05:00:20;8.27;;;5.88;;
11935;SDS011;6027;48.576;9.180;2022-07-22T05:02:46;9.20;;;6.47;;
11935;SDS011;6027;48.576;9.180;2022-07-22T05:05:11;6.82;;;6.10;;
11935;SDS011;6027;48.576;9.180;2022-07-22T05:07:37;9.32;;;6.32;;
11935;SDS011;6027;48.576;9.180;2022-07-22T05:10:03;9.57;;;6.05;;
11935;SDS011;6027;48.576;9.180;2022-07-22T05:12:29;8.73;;;6.60;;
11935;SDS011;6027;48.576;9.180;2022-07-22T05:14:54;8.32;;;6.28;;
11935;SDS011;6027;48.576;9.180;2022-07-22T05:17:20;10.48;;;6.53;;
11935;SDS011;6027;48.576;9.180;2022-07-22T05:19:45;6.32;;;5.63;;
11935;SDS011;6027;48.576;9.180;2022-07-22T05:22:11;7.20;;;6.10;;
11935;SDS011;6027;48.576;9.180;2022-07-22T05:24:37;7.30;;;6.00;;
11935;SDS011;6027;48.576;9.180;2022-07-22T05:27:02;7.45;;;6.20;;
11935;SDS011;6027;48.576;9.180;2022-07-22T05:29:28;8.18;;;6.85;;
11935;SDS011;6027;48.576;9.180;2022-07-22T05:31:54;8.70;;;6.85;;
11935;SDS011;6027;48.576;9.180;2022-07-22T05:34:20;7.13;;;6.43;;
11935;SDS011;6027;48.576;9.180;2022-07-22T05:36:45;7.60;;;6.70;;
11935;SDS011;6027;48.576;9.180;2022-07-22T05:39:10;10.07;;;6.82;;
11935;SDS011;6027;48.576;9.180;2022-07-22T05:41:36;7.15;;;6.50;;
11935;SDS011;6027;48.576;9.180;2022-07-22T05:44:02;9.93;;;7.45;;
11935;SDS011;6027;48.576;9.180;2022-07-22T05:46:28;10.50;;;7.90;;
11935;SDS011;6027;48.576;9.180;2022-07-22T05:48:54;8.70;;;7.88;;
11935;SDS011;6027;48.576;9.180;2022-07-22T05:51:20;8.55;;;7.85;;
11935;SDS011;6027;48.576;9.180;2022-07-22T05:53:45;9.00;;;8.18;;
11935;SDS011;6027;48.576;9.180;2022-07-22T05:56:11;9.38;;;8.40;;
11935;SDS011;6027;48.576;9.180;2022-07-22T05:58:38;8.38;;;7.60;;
11935;SDS011;6027;48.576;9.180;2022-07-22T06:01:04;10.63;;;9.10;;
11935;SDS011;6027;48.576;9.180;2022-07-22T06:03:29;9.52;;;8.63;;
11935;SDS011;6027;48.576;9.180;2022-07-22T06:05:55;9.45;;;8.57;;
11935;SDS011;6027;48.576;9.180;2022-07-22T06:08:20;9.82;;;9.02;;
11935;SDS011;6027;48.576;9.180;2022-07-22T06:10:46;10.45;;;9.18;;
11935;SDS011;6027;48.576;9.180;2022-07-22T06:13:12;10.50;;;9.20;;
11935;SDS011;6027;48.576;9.180;2022-07-22T06:15:37;10.60;;;9.60;;
11935;SDS011;6027;48.576;9.180;2022-07-22T06:18:02;11.35;;;9.25;;
11935;SDS011;6027;48.576;9.180;2022-07-22T06:20:28;9.73;;;8.73;;
11935;SDS011;6027;48.576;9.180;2022-07-22T06:22:53;10.00;;;8.95;;
11935;SDS011;6027;48.576;9.180;2022-07-22T06:25:19;10.90;;;9.32;;
11935;SDS011;6027;48.576;9.180;2022-07-22T06:27:44;10.40;;;9.40;;
11935;SDS011;6027;48.576;9.180;2022-07-22T06:30:10;11.05;;;10.00;;
11935;SDS011;6027;48.576;9.180;2022-07-22T06:32:36;11.82;;;9.35;;
11935;SDS011;6027;48.576;9.180;2022-07-22T06:35:01;10.93;;;9.82;;
11935;SDS011;6027;48.576;9.180;2022-07-22T06:37:28;10.80;;;9.68;;
11935;SDS011;6027;48.576;9.180;2022-07-22T06:39:53;10.95;;;9.73;;
11935;SDS011;6027;48.576;9.180;2022-07-22T06:42:18;11.05;;;10.05;;
11935;SDS011;6027;48.576;9.180;2022-07-22T06:44:44;11.10;;;9.10;;
11935;SDS011;6027;48.576;9.180;2022-07-22T06:47:09;10.38;;;8.82;;
11935;SDS011;6027;48.576;9.180;2022-07-22T06:49:35;10.57;;;9.60;;
11935;SDS011;6027;48.576;9.180;2022-07-22T06:52:00;9.80;;;8.77;;
11935;SDS011;6027;48.576;9.180;2022-07-22T06:54:26;10.63;;;8.43;;
11935;SDS011;6027;48.576;9.180;2022-07-22T06:56:52;10.95;;;9.70;;
11935;SDS011;6027;48.576;9.180;2022-07-22T06:59:18;13.57;;;12.25;;
11935;SDS011;6027;48.576;9.180;2022-07-22T07:01:44;12.27;;;11.05;;
11935;SDS011;6027;48.576;9.180;2022-07-22T07:04:09;17.55;;;13.68;;
11935;SDS011;6027;48.576;9.180;2022-07-22T07:06:35;13.82;;;10.20;;
11935;SDS011;6027;48.576;9.180;2022-07-22T07:09:01;10.38;;;9.38;;
11935;SDS011;6027;48.576;9.180;2022-07-22T07:11:27;10.23;;;9.27;;
11935;SDS011;6027;48.576;9.180;2022-07-22T07:13:54;11.02;;;9.38;;
11935;SDS011;6027;48.576;9.180;2022-07-22T07:16:20;11.02;;;9.00;;
11935;SDS011;6027;48.576;9.180;2022-07-22T07:18:45;11.40;;;8.98;;
11935;SDS011;6027;48.576;9.180;2022-07-22T07:21:11;12.50;;;9.60;;
11935;SDS011;6027;48.576;9.180;2022-07-22T07:23:37;9.52;;;8.63;;
11935;SDS011;6027;48.576;9.180;2022-07-22T07:26:02;10.27;;;8.82;;
11935;SDS011;6027;48.576;9.180;2022-07-22T07:28:28;10.68;;;9.00;;
11935;SDS011;6027;48.576;9.180;2022-07-22T07:30:53;11.48;;;10.40;;
11935;SDS011;6027;48.576;9.180;2022-07-22T07:33:19;10.25;;;9.25;;
11935;SDS011;6027;48.576;9.180;2022-07-22T07:35:44;13.30;;;9.23;;
11935;SDS011;6027;48.576;9.180;2022-07-22T07:38:10;9.85;;;8.85;;
11935;SDS011;6027;48.576;9.180;2022-07-22T07:40:35;20.30;;;18.55;;
11935;SDS011;6027;48.576;9.180;2022-07-22T07:43:01;9.85;;;8.90;;
11935;SDS011;6027;48.576;9.180;2022-07-22T07:45:27;9.45;;;8.25;;
11935;SDS011;6027;48.576;9.180;2022-07-22T07:47:52;8.85;;;8.05;;
11935;SDS011;6027;48.576;9.180;2022-07-22T07:50:18;9.32;;;8.23;;
11935;SDS011;6027;48.576;9.180;2022-07-22T07:52:44;10.93;;;8.48;;
11935;SDS011;6027;48.576;9.180;2022-07-22T07:55:12;9.82;;;8.75;;
11935;SDS011;6027;48.576;9.180;2022-07-22T07:57:39;9.23;;;8.40;;
11935;SDS011;6027;48.576;9.180;2022-07-22T08:00:06;8.30;;;7.43;;
11935;SDS011;6027;48.576;9.180;2022-07-22T08:02:34;11.13;;;7.28;;
11935;SDS011;6027;48.576;9.180;2022-07-22T08:05:00;10.05;;;7.80;;
11935;SDS011;6027;48.576;9.180;2022-07-22T08:07:27;9.90;;;7.35;;
11935;SDS011;6027;48.576;9.180;2022-07-22T08:09:53;9.18;;;8.27;;
11935;SDS011;6027;48.576;9.180;2022-07-22T08:12:19;10.25;;;7.47;;
11935;SDS011;6027;48.576;9.180;2022-07-22T08:14:44;8.82;;;7.78;;
11935;SDS011;6027;48.576;9.180;2022-07-22T08:17:10;10.77;;;9.40;;
11935;SDS011;6027;48.576;9.180;2022-07-22T08:19:35;9.75;;;8.75;;
11935;SDS011;6027;48.576;9.180;2022-07-22T08:22:01;8.60;;;7.47;;
11935;SDS011;6027;48.576;9.180;2022-07-22T08:24:27;10.23;;;7.63;;
11935;SDS011;6027;48.576;9.180;2022-07-22T08:26:52;10.50;;;8.55;;
11935;SDS011;6027;48.576;9.180;2022-07-22T08:29:18;11.95;;;9.27;;
11935;SDS011;6027;48.576;9.180;2022-07-22T08:31:43;19.25;;;14.65;;
11935;SDS011;6027;48.576;9.180;2022-07-22T08:34:09;8.05;;;6.57;;
11935;SDS011;6027;48.576;9.180;2022-07-22T08:36:35;7.65;;;6.90;;
11935;SDS011;6027;48.576;9.180;2022-07-22T08:39:00;7.82;;;7.10;;
11935;SDS011;6027;48.576;9.180;2022-07-22T08:41:26;7.43;;;6.80;;
11935;SDS011;6027;48.576;9.180;2022-07-22T08:43:52;6.95;;;6.35;;
11935;SDS011;6027;48.576;9.180;2022-07-22T08:46:17;8.50;;;6.70;;
11935;SDS011;6027;48.576;9.180;2022-07-22T08:48:43;8.52;;;6.57;;
11935;SDS011;6027;48.576;9.180;2022-07-22T08:51:09;7.40;;;6.70;;
11935;SDS011;6027;48.576;9.180;2022-07-22T08:53:34;6.82;;;6.15;;
11935;SDS011;6027;48.576;9.180;2022-07-22T08:56:00;7.55;;;5.70;;
11935;SDS011;6027;48.576;9.180;2022-07-22T08:58:26;6.43;;;5.75;;
11935;SDS011;6027;48.576;9.180;2022-07-22T09:01:04;7.32;;;5.90;;
11935;SDS011;6027;48.576;9.180;2022-07-22T09:03:43;11.27;;;8.75;;
11935;SDS011;6027;48.576;9.180;2022-07-22T09:06:29;25.35;;;19.52;;
11935;SDS011;6027;48.576;9.180;2022-07-22T09:09:02;16.38;;;13.20;;
11935;SDS011;6027;48.576;9.180;2022-07-22T09:11:29;9.52;;;8.20;;
11935;SDS011;6027;48.576;9.180;2022-07-22T09:13:56;6.68;;;5.13;;
11935;SDS011;6027;48.576;9.180;2022-07-22T09:19:14;7.05;;;5.72;;
11935;SDS011;6027;48.576;9.180;2022-07-22T09:21:41;5.70;;;5.10;;
11935;SDS011;6027;48.576;9.180;2022-07-22T09:24:08;6.25;;;5.57;;
11935;SDS011;6027;48.576;9.180;2022-07-22T09:26:53;6.90;;;6.30;;
11935;SDS011;6027;48.576;9.180;2022-07-22T09:29:19;8.13;;;6.10;;
11935;SDS011;6027;48.576;9.180;2022-07-22T09:31:49;6.25;;;5.55;;
11935;SDS011;6027;48.576;9.180;2022-07-22T09:34:29;8.68;;;6.68;;
11935;SDS011;6027;48.576;9.180;2022-07-22T09:36:58;7.10;;;5.95;;
11935;SDS011;6027;48.576;9.180;2022-07-22T09:39:25;7.03;;;6.00;;
11935;SDS011;6027;48.576;9.180;2022-07-22T09:42:02;7.80;;;5.75;;
11935;SDS011;6027;48.576;9.180;2022-07-22T09:44:29;5.90;;;5.30;;
11935;SDS011;6027;48.576;9.180;2022-07-22T09:46:54;16.35;;;14.77;;
11935;SDS011;6027;48.576;9.180;2022-07-22T09:49:29;11.48;;;8.82;;
11935;SDS011;6027;48.576;9.180;2022-07-22T09:52:05;8.43;;;5.55;;
11935;SDS011;6027;48.576;9.180;2022-07-22T09:54:31;6.63;;;5.35;;
11935;SDS011;6027;48.576;9.180;2022-07-22T09:56:57;7.75;;;5.93;;
11935;SDS011;6027;48.576;9.180;2022-07-22T09:59:23;6.38;;;5.78;;
11935;SDS011;6027;48.576;9.180;2022-07-22T10:01:50;5.78;;;5.13;;
11935;SDS011;6027;48.576;9.180;2022-07-22T10:04:20;7.55;;;5.65;;
11935;SDS011;6027;48.576;9.180;2022-07-22T10:06:49;6.65;;;5.20;;
11935;SDS011;6027;48.576;9.180;2022-07-22T10:09:16;5.28;;;4.88;;
11935;SDS011;6027;48.576;9.180;2022-07-22T10:11:42;7.20;;;5.03;;
11935;SDS011;6027;48.576;9.180;2022-07-22T10:14:14;5.93;;;4.80;;
11935;SDS011;6027;48.576;9.180;2022-07-22T10:16:41;5.97;;;5.32;;
11935;SDS011;6027;48.576;9.180;2022-07-22T10:19:09;7.00;;;5.35;;
11935;SDS011;6027;48.576;9.180;2022-07-22T10:21:35;5.35;;;4.85;;
11935;SDS011;6027;48.576;9.180;2022-07-22T10:26:50;6.47;;;5.53;;
11935;SDS011;6027;48.576;9.180;2022-07-22T10:45:33;10.02;;;5.47;;
11935;SDS011;6027;48.576;9.180;2022-07-22T10:48:22;4.93;;;4.53;;
11935;SDS011;6027;48.576;9.180;2022-07-22T10:53:53;5.63;;;5.13;;
11935;SDS011;6027;48.576;9.180;2022-07-22T11:01:36;5.75;;;5.22;;
11935;SDS011;6027;48.576;9.180;2022-07-22T11:04:08;5.50;;;5.00;;
11935;SDS011;6027;48.576;9.180;2022-07-22T11:06:39;6.05;;;4.97;;
11935;SDS011;6027;48.576;9.180;2022-07-22T11:09:06;5.63;;;4.93;;
11935;SDS011;6027;48.576;9.180;2022-07-22T11:11:38;8.95;;;5.00;;
11935;SDS011;6027;48.576;9.180;2022-07-22T11:16:50;5.85;;;5.03;;
11935;SDS011;6027;48.576;9.180;2022-07-22T11:19:20;6.20;;;5.05;;
11935;SDS011;6027;48.576;9.180;2022-07-22T11:21:49;5.78;;;5.18;;
11935;SDS011;6027;48.576;9.180;2022-07-22T11:24:19;8.48;;;5.15;;
11935;SDS011;6027;48.576;9.180;2022-07-22T11:26:46;5.35;;;4.85;;
11935;SDS011;6027;48.576;9.180;2022-07-22T11:29:23;5.63;;;5.10;;
11935;SDS011;6027;48.576;9.180;2022-07-22T11:31:48;5.95;;;5.07;;
11935;SDS011;6027;48.576;9.180;2022-07-22T11:34:15;7.28;;;4.93;;
11935;SDS011;6027;48.576;9.180;2022-07-22T11:36:42;6.40;;;4.75;;
11935;SDS011;6027;48.576;9.180;2022-07-22T11:39:10;5.43;;;4.72;;
11935;SDS011;6027;48.576;9.180;2022-07-22T11:41:38;6.63;;;4.65;;
11935;SDS011;6027;48.576;9.180;2022-07-22T11:44:04;5.10;;;4.60;;
11935;SDS011;6027;48.576;9.180;2022-07-22T11:46:40;5.60;;;5.10;;
11935;SDS011;6027;48.576;9.180;2022-07-22T11:49:07;6.65;;;4.55;;
11935;SDS011;6027;48.576;9.180;2022-07-22T11:51:34;5.55;;;4.80;;
11935;SDS011;6027;48.576;9.180;2022-07-22T11:54:02;5.25;;;4.75;;
11935;SDS011;6027;48.576;9.180;2022-07-22T11:56:29;6.70;;;4.82;;
11935;SDS011;6027;48.576;9.180;2022-07-22T11:58:55;4.95;;;4.43;;
11935;SDS011;6027;48.576;9.180;2022-07-22T12:01:28;6.70;;;4.90;;
11935;SDS011;6027;48.576;9.180;2022-07-22T12:03:55;4.97;;;4.47;;
11935;SDS011;6027;48.576;9.180;2022-07-22T12:06:23;5.35;;;4.93;;
11935;SDS011;6027;48.576;9.180;2022-07-22T12:08:54;5.32;;;4.90;;
11935;SDS011;6027;48.576;9.180;2022-07-22T12:11:22;5.15;;;4.65;;
11935;SDS011;6027;48.576;9.180;2022-07-22T12:13:50;5.10;;;4.60;;
11935;SDS011;6027;48.576;9.180;2022-07-22T12:16:17;6.72;;;4.57;;
11935;SDS011;6027;48.576;9.180;2022-07-22T12:19:07;5.25;;;4.57;;
11935;SDS011;6027;48.576;9.180;2022-07-22T12:24:25;5.65;;;4.68;;
11935;SDS011;6027;48.576;9.180;2022-07-22T12:27:05;5.20;;;4.65;;
11935;SDS011;6027;48.576;9.180;2022-07-22T12:32:01;5.80;;;4.45;;
11935;SDS011;6027;48.576;9.180;2022-07-22T12:34:30;5.97;;;4.85;;
11935;SDS011;6027;48.576;9.180;2022-07-22T12:39:57;5.00;;;4.50;;
11935;SDS011;6027;48.576;9.180;2022-07-22T12:42:24;8.43;;;4.93;;
11935;SDS011;6027;48.576;9.180;2022-07-22T12:44:52;4.95;;;4.45;;
11935;SDS011;6027;48.576;9.180;2022-07-22T12:47:42;4.90;;;4.40;;
11935;SDS011;6027;48.576;9.180;2022-07-22T12:52:57;6.07;;;4.60;;
11935;SDS011;6027;48.576;9.180;2022-07-22T12:55:29;5.82;;;4.78;;
11935;SDS011;6027;48.576;9.180;2022-07-22T12:57:56;5.30;;;4.80;;
11935;SDS011;6027;48.576;9.180;2022-07-22T13:00:32;5.25;;;4.75;;
11935;SDS011;6027;48.576;9.180;2022-07-22T13:03:02;4.90;;;4.50;;
11935;SDS011;6027;48.576;9.180;2022-07-22T13:05:28;4.88;;;4.43;;
11935;SDS011;6027;48.576;9.180;2022-07-22T13:07:54;5.35;;;4.85;;
11935;SDS011;6027;48.576;9.180;2022-07-22T13:10:20;5.40;;;4.57;;
11935;SDS011;6027;48.576;9.180;2022-07-22T13:12:47;5.03;;;4.53;;
11935;SDS011;6027;48.576;9.180;2022-07-22T13:15:13;7.35;;;4.63;;
11935;SDS011;6027;48.576;9.180;2022-07-22T13:17:39;6.13;;;4.38;;
11935;SDS011;6027;48.576;9.180;2022-07-22T13:20:06;6.28;;;4.80;;
11935;SDS011;6027;48.576;9.180;2022-07-22T13:22:33;6.30;;;4.72;;
11935;SDS011;6027;48.576;9.180;2022-07-22T13:25:01;6.28;;;4.75;;
11935;SDS011;6027;48.576;9.180;2022-07-22T13:27:26;4.80;;;4.40;;
11935;SDS011;6027;48.576;9.180;2022-07-22T13:29:52;5.00;;;4.60;;
11935;SDS011;6027;48.576;9.180;2022-07-22T13:32:17;5.03;;;4.47;;
11935;SDS011;6027;48.576;9.180;2022-07-22T13:34:43;4.80;;;4.40;;
11935;SDS011;6027;48.576;9.180;2022-07-22T13:37:09;6.38;;;4.78;;
11935;SDS011;6027;48.576;9.180;2022-07-22T13:39:34;7.22;;;4.15;;
11935;SDS011;6027;48.576;9.180;2022-07-22T13:42:00;4.97;;;4.45;;
11935;SDS011;6027;48.576;9.180;2022-07-22T13:44:25;5.78;;;4.68;;
11935;SDS011;6027;48.576;9.180;2022-07-22T13:46:51;4.45;;;4.15;;
11935;SDS011;6027;48.576;9.180;2022-07-22T13:49:17;4.82;;;4.32;;
11935;SDS011;6027;48.576;9.180;2022-07-22T13:51:43;4.65;;;4.25;;
11935;SDS011;6027;48.576;9.180;2022-07-22T13:54:08;5.80;;;4.93;;
11935;SDS011;6027;48.576;9.180;2022-07-22T13:56:34;6.18;;;4.20;;
11935;SDS011;6027;48.576;9.180;2022-07-22T13:59:00;6.95;;;4.45;;
11935;SDS011;6027;48.576;9.180;2022-07-22T14:01:26;4.78;;;4.28;;
11935;SDS011;6027;48.576;9.180;2022-07-22T14:03:53;5.07;;;4.15;;
11935;SDS011;6027;48.576;9.180;2022-07-22T14:06:19;5.32;;;4.45;;
11935;SDS011;6027;48.576;9.180;2022-07-22T14:08:44;5.95;;;4.70;;
11935;SDS011;6027;48.576;9.180;2022-07-22T14:11:10;4.53;;;4.13;;
11935;SDS011;6027;48.576;9.180;2022-07-22T14:13:35;4.47;;;4.05;;
11935;SDS011;6027;48.576;9.180;2022-07-22T14:16:01;4.93;;;4.47;;
11935;SDS011;6027;48.576;9.180;2022-07-22T14:18:46;5.15;;;4.32;;
11935;SDS011;6027;48.576;9.180;2022-07-22T14:21:11;5.13;;;4.30;;
11935;SDS011;6027;48.576;9.180;2022-07-22T14:23:37;4.88;;;4.15;;
11935;SDS011;6027;48.576;9.180;2022-07-22T14:26:02;5.38;;;4.32;;
11935;SDS011;6027;48.576;9.180;2022-07-22T14:28:27;4.47;;;4.18;;
11935;SDS011;6027;48.576;9.180;2022-07-22T14:30:53;9.98;;;4.50;;
11935;SDS011;6027;48.576;9.180;2022-07-22T14:33:18;4.30;;;3.90;;
11935;SDS011;6027;48.576;9.180;2022-07-22T14:35:44;4.68;;;4.22;;
11935;SDS011;6027;48.576;9.180;2022-07-22T14:38:09;6.35;;;4.15;;
11935;SDS011;6027;48.576;9.180;2022-07-22T14:40:35;5.72;;;4.30;;
11935;SDS011;6027;48.576;9.180;2022-07-22T14:43:00;5.82;;;4.20;;
11935;SDS011;6027;48.576;9.180;2022-07-22T14:45:26;4.50;;;4.10;;
11935;SDS011;6027;48.576;9.180;2022-07-22T14:47:51;8.07;;;4.25;;
11935;SDS011;6027;48.576;9.180;2022-07-22T14:50:17;4.53;;;4.13;;
11935;SDS011;6027;48.576;9.180;2022-07-22T14:52:43;5.40;;;4.40;;
11935;SDS011;6027;48.576;9.180;2022-07-22T14:55:08;4.85;;;4.38;;
11935;SDS011;6027;48.576;9.180;2022-07-22T14:57:34;8.68;;;4.47;;
11935;SDS011;6027;48.576;9.180;2022-07-22T14:59:59;5.80;;;4.20;;
11935;SDS011;6027;48.576;9.180;2022-07-22T15:02:25;3.97;;;3.65;;
11935;SDS011;6027;48.576;9.180;2022-07-22T15:04:50;4.22;;;3.92;;
11935;SDS011;6027;48.576;9.180;2022-07-22T15:07:16;5.55;;;4.18;;
11935;SDS011;6027;48.576;9.180;2022-07-22T15:09:41;5.03;;;4.40;;
11935;SDS011;6027;48.576;9.180;2022-07-22T15:12:07;4.50;;;4.05;;
11935;SDS011;6027;48.576;9.180;2022-07-22T15:14:32;5.07;;;4.35;;
11935;SDS011;6027;48.576;9.180;2022-07-22T15:16:58;5.82;;;4.45;;
11935;SDS011;6027;48.576;9.180;2022-07-22T15:19:23;4.28;;;3.88;;
11935;SDS011;6027;48.576;9.180;2022-07-22T15:21:49;5.32;;;4.20;;
11935;SDS011;6027;48.576;9.180;2022-07-22T15:26:42;5.63;;;4.22;;
11935;SDS011;6027;48.576;9.180;2022-07-22T15:29:07;6.22;;;4.07;;
11935;SDS011;6027;48.576;9.180;2022-07-22T15:31:33;5.03;;;4.55;;
11935;SDS011;6027;48.576;9.180;2022-07-22T15:33:59;8.27;;;4.40;;
11935;SDS011;6027;48.576;9.180;2022-07-22T15:36:24;5.57;;;4.32;;
11935;SDS011;6027;48.576;9.180;2022-07-22T15:38:54;6.00;;;4.20;;
11935;SDS011;6027;48.576;9.180;2022-07-22T15:41:19;4.45;;;4.05;;